Sharps Island — WDB2219 — position and weather

sailwx.info

Track history (hours):
 
Tides and Currents Weather Stations Pressure Air Temp Water Temp Dewpoint Dewpoint Depression Visibility Wind Speed Wind Dir Waves Ship Positions

Sharps Island

Owner: Langenfelder Marine Inc., Stevensville, MD. More information available from US FCC via Universal Licensing System and Coast Guard Vessel Documentation Center.

Last reported at 2014-Oct-16 23:33 UTC. Time now 2014-Oct-23 00:43 UTC.
Position N 38°55' W 076°25'.

Length 25 m.

Type: Tug. MMSI: 338126265.

Date/timePositionNaut miles runAvg speedWind from/ knotsBaromVisibWave heightAir tempDewpointWater temp
2014-Oct-16 23:33N 38°55' W 076°25'7 6.8
2014-Oct-16 22:33N 38°48' W 076°28'7 6.8
2014-Oct-16 21:33N 38°42' W 076°25'6 5.5
2014-Oct-16 20:33N 38°39' W 076°19'5 4.9
2014-Oct-16 19:33N 38°43' W 076°19'0 0.0
2014-Oct-16 13:19N 38°43' W 076°19'5 1.5
2014-Oct-16 10:04N 38°39' W 076°22'  
2014-Oct-09 08:24N 38°56' W 076°25'6 7.2
2014-Oct-09 07:33N 38°50' W 076°26'7 6.9
2014-Oct-09 06:34N 38°43' W 076°26'7 6.7
2014-Oct-09 05:33N 38°38' W 076°21'5 4.8
2014-Oct-09 04:33N 38°43' W 076°19'  
Track history (hours):
 
Tides and Currents Weather Stations Pressure Air Temp Water Temp Dewpoint Dewpoint Depression Visibility Wind Speed Wind Dir Waves Ship Positions

Sharps Island

Owner: Langenfelder Marine Inc., Stevensville, MD. More information available from US FCC via Universal Licensing System and Coast Guard Vessel Documentation Center.

Last reported at 2014-Oct-16 23:33 UTC. Time now 2014-Oct-23 00:43 UTC.
Position N 38°55' W 076°25'.

Length 25 m.

Type: Tug. MMSI: 338126265.

Date/timePositionNaut miles runAvg speedWind from/ knotsBaromVisibWave heightAir tempDewpointWater temp
2014-Oct-16 23:33N 38°55' W 076°25'7 6.8
2014-Oct-16 22:33N 38°48' W 076°28'7 6.8
2014-Oct-16 21:33N 38°42' W 076°25'6 5.5
2014-Oct-16 20:33N 38°39' W 076°19'5 4.9
2014-Oct-16 19:33N 38°43' W 076°19'0 0.0
2014-Oct-16 13:19N 38°43' W 076°19'5 1.5
2014-Oct-16 10:04N 38°39' W 076°22'  
2014-Oct-09 08:24N 38°56' W 076°25'6 7.2
2014-Oct-09 07:33N 38°50' W 076°26'7 6.9
2014-Oct-09 06:34N 38°43' W 076°26'7 6.7
2014-Oct-09 05:33N 38°38' W 076°21'5 4.8
2014-Oct-09 04:33N 38°43' W 076°19'  

Dump ship's entire track history